sensor_id;sensor_type;location;lat;lon;timestamp;temperature;humidity
6948;DHT22;3513;47.664;9.162;2022-07-23T00:00:06;18.60;99.90
6948;DHT22;3513;47.664;9.162;2022-07-23T00:02:32;18.60;99.90
6948;DHT22;3513;47.664;9.162;2022-07-23T00:04:57;18.60;99.90
6948;DHT22;3513;47.664;9.162;2022-07-23T00:07:23;18.50;99.90
6948;DHT22;3513;47.664;9.162;2022-07-23T00:09:48;18.50;99.90
6948;DHT22;3513;47.664;9.162;2022-07-23T00:12:14;18.60;99.90
6948;DHT22;3513;47.664;9.162;2022-07-23T00:14:40;18.60;99.90
6948;DHT22;3513;47.664;9.162;2022-07-23T00:17:05;18.60;99.90
6948;DHT22;3513;47.664;9.162;2022-07-23T00:19:31;18.60;99.90
6948;DHT22;3513;47.664;9.162;2022-07-23T00:21:56;18.60;99.90
6948;DHT22;3513;47.664;9.162;2022-07-23T00:24:22;18.60;99.90
6948;DHT22;3513;47.664;9.162;2022-07-23T00:26:48;18.70;99.90
6948;DHT22;3513;47.664;9.162;2022-07-23T00:29:13;18.70;99.90
6948;DHT22;3513;47.664;9.162;2022-07-23T00:31:39;18.80;99.90
6948;DHT22;3513;47.664;9.162;2022-07-23T00:34:04;18.80;99.90
6948;DHT22;3513;47.664;9.162;2022-07-23T00:36:30;18.80;99.90
6948;DHT22;3513;47.664;9.162;2022-07-23T00:38:58;18.80;99.90
6948;DHT22;3513;47.664;9.162;2022-07-23T00:41:24;18.80;99.90
6948;DHT22;3513;47.664;9.162;2022-07-23T00:43:50;18.90;99.90
6948;DHT22;3513;47.664;9.162;2022-07-23T00:46:22;18.90;99.90
6948;DHT22;3513;47.664;9.162;2022-07-23T00:48:48;18.80;99.90
6948;DHT22;3513;47.664;9.162;2022-07-23T00:51:15;18.80;99.90
6948;DHT22;3513;47.664;9.162;2022-07-23T00:53:42;19.60;99.90
6948;DHT22;3513;47.664;9.162;2022-07-23T00:56:07;18.60;99.90
6948;DHT22;3513;47.664;9.162;2022-07-23T00:58:35;18.60;99.90
6948;DHT22;3513;47.664;9.162;2022-07-23T01:01:01;18.50;99.90
6948;DHT22;3513;47.664;9.162;2022-07-23T01:03:27;18.50;99.90
6948;DHT22;3513;47.664;9.162;2022-07-23T01:05:53;18.40;99.90
6948;DHT22;3513;47.664;9.162;2022-07-23T01:08:19;18.40;99.90
6948;DHT22;3513;47.664;9.162;2022-07-23T01:10:47;18.40;99.90
6948;DHT22;3513;47.664;9.162;2022-07-23T01:13:13;18.40;99.90
6948;DHT22;3513;47.664;9.162;2022-07-23T01:15:39;18.40;99.90
6948;DHT22;3513;47.664;9.162;2022-07-23T01:18:06;18.30;99.90
6948;DHT22;3513;47.664;9.162;2022-07-23T01:20:32;18.30;99.90
6948;DHT22;3513;47.664;9.162;2022-07-23T01:22:58;18.30;99.90
6948;DHT22;3513;47.664;9.162;2022-07-23T01:25:24;18.30;99.90
6948;DHT22;3513;47.664;9.162;2022-07-23T01:27:51;18.30;99.90
6948;DHT22;3513;47.664;9.162;2022-07-23T01:30:19;18.30;99.90
6948;DHT22;3513;47.664;9.162;2022-07-23T01:32:45;18.30;99.90
6948;DHT22;3513;47.664;9.162;2022-07-23T01:35:11;18.30;99.90
6948;DHT22;3513;47.664;9.162;2022-07-23T01:37:37;18.30;99.90
6948;DHT22;3513;47.664;9.162;2022-07-23T01:40:04;18.40;99.90
6948;DHT22;3513;47.664;9.162;2022-07-23T01:42:30;18.40;99.90
6948;DHT22;3513;47.664;9.162;2022-07-23T01:44:56;18.40;99.90
6948;DHT22;3513;47.664;9.162;2022-07-23T01:47:22;18.40;99.90
6948;DHT22;3513;47.664;9.162;2022-07-23T01:49:47;18.40;99.90
6948;DHT22;3513;47.664;9.162;2022-07-23T01:52:13;18.40;99.90
6948;DHT22;3513;47.664;9.162;2022-07-23T01:54:39;18.40;99.90
6948;DHT22;3513;47.664;9.162;2022-07-23T01:57:06;18.50;99.90
6948;DHT22;3513;47.664;9.162;2022-07-23T01:59:31;18.50;99.90
6948;DHT22;3513;47.664;9.162;2022-07-23T02:01:57;18.50;99.90
6948;DHT22;3513;47.664;9.162;2022-07-23T02:04:24;18.50;99.90
6948;DHT22;3513;47.664;9.162;2022-07-23T02:06:50;18.60;99.90
6948;DHT22;3513;47.664;9.162;2022-07-23T02:09:17;18.60;99.90
6948;DHT22;3513;47.664;9.162;2022-07-23T02:11:43;18.60;99.90
6948;DHT22;3513;47.664;9.162;2022-07-23T02:14:09;18.70;99.90
6948;DHT22;3513;47.664;9.162;2022-07-23T02:16:34;18.80;99.90
6948;DHT22;3513;47.664;9.162;2022-07-23T02:19:00;18.80;99.90
6948;DHT22;3513;47.664;9.162;2022-07-23T02:21:26;18.90;99.90
6948;DHT22;3513;47.664;9.162;2022-07-23T02:23:51;18.90;99.90
6948;DHT22;3513;47.664;9.162;2022-07-23T02:26:17;19.00;99.90
6948;DHT22;3513;47.664;9.162;2022-07-23T02:28:43;19.00;99.90
6948;DHT22;3513;47.664;9.162;2022-07-23T02:31:08;19.00;99.90
6948;DHT22;3513;47.664;9.162;2022-07-23T02:33:34;19.00;99.90
6948;DHT22;3513;47.664;9.162;2022-07-23T02:36:00;19.00;99.90
6948;DHT22;3513;47.664;9.162;2022-07-23T02:38:25;19.10;99.90
6948;DHT22;3513;47.664;9.162;2022-07-23T02:40:51;19.10;99.90
6948;DHT22;3513;47.664;9.162;2022-07-23T02:43:17;19.10;99.90
6948;DHT22;3513;47.664;9.162;2022-07-23T02:45:42;19.10;99.90
6948;DHT22;3513;47.664;9.162;2022-07-23T02:48:08;19.10;99.90
6948;DHT22;3513;47.664;9.162;2022-07-23T02:50:34;19.10;99.90
6948;DHT22;3513;47.664;9.162;2022-07-23T02:53:00;19.10;99.90
6948;DHT22;3513;47.664;9.162;2022-07-23T02:55:26;19.10;99.90
6948;DHT22;3513;47.664;9.162;2022-07-23T02:57:52;19.00;99.90
6948;DHT22;3513;47.664;9.162;2022-07-23T03:00:18;18.90;99.90
6948;DHT22;3513;47.664;9.162;2022-07-23T03:02:44;18.90;99.90
6948;DHT22;3513;47.664;9.162;2022-07-23T03:05:09;18.70;99.90
6948;DHT22;3513;47.664;9.162;2022-07-23T03:07:35;18.60;99.90
6948;DHT22;3513;47.664;9.162;2022-07-23T03:10:01;18.60;99.90
6948;DHT22;3513;47.664;9.162;2022-07-23T03:12:26;18.60;99.90
6948;DHT22;3513;47.664;9.162;2022-07-23T03:14:52;18.60;99.90
6948;DHT22;3513;47.664;9.162;2022-07-23T03:17:18;18.50;99.90
6948;DHT22;3513;47.664;9.162;2022-07-23T03:19:43;18.50;99.90
6948;DHT22;3513;47.664;9.162;2022-07-23T03:22:09;18.40;99.90
6948;DHT22;3513;47.664;9.162;2022-07-23T03:24:35;18.40;99.90
6948;DHT22;3513;47.664;9.162;2022-07-23T03:27:23;18.50;99.90
6948;DHT22;3513;47.664;9.162;2022-07-23T03:29:50;18.50;99.90
6948;DHT22;3513;47.664;9.162;2022-07-23T03:32:16;18.50;99.90
6948;DHT22;3513;47.664;9.162;2022-07-23T03:34:42;18.50;99.90
6948;DHT22;3513;47.664;9.162;2022-07-23T03:37:07;18.50;99.90
6948;DHT22;3513;47.664;9.162;2022-07-23T03:39:34;18.50;99.90
6948;DHT22;3513;47.664;9.162;2022-07-23T03:42:00;18.50;99.90
6948;DHT22;3513;47.664;9.162;2022-07-23T03:44:26;18.40;99.90
6948;DHT22;3513;47.664;9.162;2022-07-23T03:46:51;18.50;99.90
6948;DHT22;3513;47.664;9.162;2022-07-23T03:49:17;18.50;99.90
6948;DHT22;3513;47.664;9.162;2022-07-23T03:51:43;18.50;99.90
6948;DHT22;3513;47.664;9.162;2022-07-23T03:54:09;18.50;99.90
6948;DHT22;3513;47.664;9.162;2022-07-23T03:56:35;18.50;99.90
6948;DHT22;3513;47.664;9.162;2022-07-23T03:59:00;18.50;99.90
6948;DHT22;3513;47.664;9.162;2022-07-23T04:01:26;18.50;99.90
6948;DHT22;3513;47.664;9.162;2022-07-23T04:03:52;18.50;99.90
6948;DHT22;3513;47.664;9.162;2022-07-23T04:06:18;18.50;99.90
6948;DHT22;3513;47.664;9.162;2022-07-23T04:08:43;18.60;99.90
6948;DHT22;3513;47.664;9.162;2022-07-23T04:11:09;18.50;99.90
6948;DHT22;3513;47.664;9.162;2022-07-23T04:13:35;18.50;99.90
6948;DHT22;3513;47.664;9.162;2022-07-23T04:16:00;18.50;99.90
6948;DHT22;3513;47.664;9.162;2022-07-23T04:18:26;18.50;99.90
6948;DHT22;3513;47.664;9.162;2022-07-23T04:20:52;18.50;99.90
6948;DHT22;3513;47.664;9.162;2022-07-23T04:23:17;18.50;99.90
6948;DHT22;3513;47.664;9.162;2022-07-23T04:25:43;18.50;99.90
6948;DHT22;3513;47.664;9.162;2022-07-23T04:28:09;18.50;99.90
6948;DHT22;3513;47.664;9.162;2022-07-23T04:30:34;18.50;99.90
6948;DHT22;3513;47.664;9.162;2022-07-23T04:33:00;18.50;99.90
6948;DHT22;3513;47.664;9.162;2022-07-23T04:35:26;18.50;99.90
6948;DHT22;3513;47.664;9.162;2022-07-23T04:37:52;18.50;99.90
6948;DHT22;3513;47.664;9.162;2022-07-23T04:40:18;18.50;99.90
6948;DHT22;3513;47.664;9.162;2022-07-23T04:42:43;18.40;99.90
6948;DHT22;3513;47.664;9.162;2022-07-23T04:45:09;18.30;99.90
6948;DHT22;3513;47.664;9.162;2022-07-23T04:47:35;18.20;99.90
6948;DHT22;3513;47.664;9.162;2022-07-23T04:50:00;18.20;99.90
6948;DHT22;3513;47.664;9.162;2022-07-23T04:52:26;18.20;99.90
6948;DHT22;3513;47.664;9.162;2022-07-23T04:54:52;18.20;99.90
6948;DHT22;3513;47.664;9.162;2022-07-23T04:57:17;18.20;99.90
6948;DHT22;3513;47.664;9.162;2022-07-23T04:59:43;18.30;99.90
6948;DHT22;3513;47.664;9.162;2022-07-23T05:02:09;18.30;99.90
6948;DHT22;3513;47.664;9.162;2022-07-23T05:04:34;18.30;99.90
6948;DHT22;3513;47.664;9.162;2022-07-23T05:07:00;18.30;99.90
6948;DHT22;3513;47.664;9.162;2022-07-23T05:09:26;18.30;99.90
6948;DHT22;3513;47.664;9.162;2022-07-23T05:11:51;18.30;99.90
6948;DHT22;3513;47.664;9.162;2022-07-23T05:14:17;18.30;99.90
6948;DHT22;3513;47.664;9.162;2022-07-23T05:16:43;18.30;99.90
6948;DHT22;3513;47.664;9.162;2022-07-23T05:19:08;18.20;99.90
6948;DHT22;3513;47.664;9.162;2022-07-23T05:21:34;18.20;99.90
6948;DHT22;3513;47.664;9.162;2022-07-23T05:24:00;18.20;99.90
6948;DHT22;3513;47.664;9.162;2022-07-23T05:26:26;18.20;99.90
6948;DHT22;3513;47.664;9.162;2022-07-23T05:28:52;18.30;99.90
6948;DHT22;3513;47.664;9.162;2022-07-23T05:31:17;18.40;99.90
6948;DHT22;3513;47.664;9.162;2022-07-23T05:33:43;18.30;99.90
6948;DHT22;3513;47.664;9.162;2022-07-23T05:36:09;18.30;99.90
6948;DHT22;3513;47.664;9.162;2022-07-23T05:38:35;18.30;99.90
6948;DHT22;3513;47.664;9.162;2022-07-23T05:41:01;18.30;99.90
6948;DHT22;3513;47.664;9.162;2022-07-23T05:43:27;18.30;99.90
6948;DHT22;3513;47.664;9.162;2022-07-23T05:45:53;18.30;99.90
6948;DHT22;3513;47.664;9.162;2022-07-23T05:48:19;18.30;99.90
6948;DHT22;3513;47.664;9.162;2022-07-23T05:50:46;18.40;99.90
6948;DHT22;3513;47.664;9.162;2022-07-23T05:53:12;18.40;99.90
6948;DHT22;3513;47.664;9.162;2022-07-23T05:55:38;18.40;99.90
6948;DHT22;3513;47.664;9.162;2022-07-23T05:58:03;18.60;99.90
6948;DHT22;3513;47.664;9.162;2022-07-23T06:00:29;18.50;99.90
6948;DHT22;3513;47.664;9.162;2022-07-23T06:02:55;18.50;99.90
6948;DHT22;3513;47.664;9.162;2022-07-23T06:05:21;18.60;99.90
6948;DHT22;3513;47.664;9.162;2022-07-23T06:07:47;18.70;99.90
6948;DHT22;3513;47.664;9.162;2022-07-23T06:10:13;18.80;99.90
6948;DHT22;3513;47.664;9.162;2022-07-23T06:12:39;18.90;99.90
6948;DHT22;3513;47.664;9.162;2022-07-23T06:15:05;19.00;99.90
6948;DHT22;3513;47.664;9.162;2022-07-23T06:17:31;19.10;99.90
6948;DHT22;3513;47.664;9.162;2022-07-23T06:19:56;19.20;99.90
6948;DHT22;3513;47.664;9.162;2022-07-23T06:22:22;19.20;99.90
6948;DHT22;3513;47.664;9.162;2022-07-23T06:24:49;19.30;99.90
6948;DHT22;3513;47.664;9.162;2022-07-23T06:27:14;19.30;99.90
6948;DHT22;3513;47.664;9.162;2022-07-23T06:29:40;19.30;99.90
6948;DHT22;3513;47.664;9.162;2022-07-23T06:32:07;19.30;99.90
6948;DHT22;3513;47.664;9.162;2022-07-23T06:34:33;19.30;99.90
6948;DHT22;3513;47.664;9.162;2022-07-23T06:36:59;19.30;99.90
6948;DHT22;3513;47.664;9.162;2022-07-23T06:39:25;19.30;99.90
6948;DHT22;3513;47.664;9.162;2022-07-23T06:41:51;19.30;99.90
6948;DHT22;3513;47.664;9.162;2022-07-23T06:44:16;19.30;99.90
6948;DHT22;3513;47.664;9.162;2022-07-23T06:46:42;19.40;99.90
6948;DHT22;3513;47.664;9.162;2022-07-23T06:49:08;19.40;99.90
6948;DHT22;3513;47.664;9.162;2022-07-23T06:51:34;20.00;99.90
6948;DHT22;3513;47.664;9.162;2022-07-23T06:53:59;19.60;99.90
6948;DHT22;3513;47.664;9.162;2022-07-23T06:56:25;19.60;99.90
6948;DHT22;3513;47.664;9.162;2022-07-23T06:58:51;19.70;99.90
6948;DHT22;3513;47.664;9.162;2022-07-23T07:01:17;19.70;99.90
6948;DHT22;3513;47.664;9.162;2022-07-23T07:03:42;19.70;99.90
6948;DHT22;3513;47.664;9.162;2022-07-23T07:06:08;19.80;99.90
6948;DHT22;3513;47.664;9.162;2022-07-23T07:08:34;19.80;99.90
6948;DHT22;3513;47.664;9.162;2022-07-23T07:11:00;19.90;99.90
6948;DHT22;3513;47.664;9.162;2022-07-23T07:13:25;20.00;99.90
6948;DHT22;3513;47.664;9.162;2022-07-23T07:15:51;20.00;99.90
6948;DHT22;3513;47.664;9.162;2022-07-23T07:18:17;20.10;99.90
6948;DHT22;3513;47.664;9.162;2022-07-23T07:20:42;20.10;99.90
6948;DHT22;3513;47.664;9.162;2022-07-23T07:23:08;20.10;99.90
6948;DHT22;3513;47.664;9.162;2022-07-23T07:25:34;20.20;99.90
6948;DHT22;3513;47.664;9.162;2022-07-23T07:27:59;20.20;99.90
6948;DHT22;3513;47.664;9.162;2022-07-23T07:30:25;20.20;99.90
6948;DHT22;3513;47.664;9.162;2022-07-23T07:32:50;20.20;99.90
6948;DHT22;3513;47.664;9.162;2022-07-23T07:35:16;20.20;99.90
6948;DHT22;3513;47.664;9.162;2022-07-23T07:37:42;20.10;99.90
6948;DHT22;3513;47.664;9.162;2022-07-23T07:40:08;20.10;99.90
6948;DHT22;3513;47.664;9.162;2022-07-23T07:42:34;20.10;99.90
6948;DHT22;3513;47.664;9.162;2022-07-23T07:44:59;20.10;99.90
6948;DHT22;3513;47.664;9.162;2022-07-23T07:47:25;20.20;99.90
6948;DHT22;3513;47.664;9.162;2022-07-23T07:49:51;20.40;99.90
6948;DHT22;3513;47.664;9.162;2022-07-23T07:52:16;20.40;99.90
6948;DHT22;3513;47.664;9.162;2022-07-23T07:54:42;20.20;99.90
6948;DHT22;3513;47.664;9.162;2022-07-23T07:57:08;20.20;99.90
6948;DHT22;3513;47.664;9.162;2022-07-23T07:59:34;20.20;99.90
6948;DHT22;3513;47.664;9.162;2022-07-23T08:01:59;20.20;99.90
6948;DHT22;3513;47.664;9.162;2022-07-23T08:04:25;20.20;99.90
6948;DHT22;3513;47.664;9.162;2022-07-23T08:06:51;20.30;99.90
6948;DHT22;3513;47.664;9.162;2022-07-23T08:09:16;20.40;99.90
6948;DHT22;3513;47.664;9.162;2022-07-23T08:11:42;20.50;99.90
6948;DHT22;3513;47.664;9.162;2022-07-23T08:14:07;20.60;99.90
6948;DHT22;3513;47.664;9.162;2022-07-23T08:16:34;20.60;99.90
6948;DHT22;3513;47.664;9.162;2022-07-23T08:19:00;20.70;99.90
6948;DHT22;3513;47.664;9.162;2022-07-23T08:21:26;20.80;99.90
6948;DHT22;3513;47.664;9.162;2022-07-23T08:23:51;20.80;99.90
6948;DHT22;3513;47.664;9.162;2022-07-23T08:26:17;20.80;99.90
6948;DHT22;3513;47.664;9.162;2022-07-23T08:28:43;20.70;99.90
6948;DHT22;3513;47.664;9.162;2022-07-23T08:31:08;20.70;99.90
6948;DHT22;3513;47.664;9.162;2022-07-23T08:33:36;20.60;99.90
6948;DHT22;3513;47.664;9.162;2022-07-23T08:36:03;20.70;99.90
6948;DHT22;3513;47.664;9.162;2022-07-23T08:38:29;20.70;99.90
6948;DHT22;3513;47.664;9.162;2022-07-23T08:40:55;20.80;99.90
6948;DHT22;3513;47.664;9.162;2022-07-23T08:43:31;20.80;99.90
6948;DHT22;3513;47.664;9.162;2022-07-23T08:45:59;20.90;99.90
6948;DHT22;3513;47.664;9.162;2022-07-23T08:48:26;20.90;99.90
6948;DHT22;3513;47.664;9.162;2022-07-23T08:50:57;21.00;99.90
6948;DHT22;3513;47.664;9.162;2022-07-23T08:53:25;21.10;99.90
6948;DHT22;3513;47.664;9.162;2022-07-23T08:55:54;21.10;99.90
6948;DHT22;3513;47.664;9.162;2022-07-23T08:58:20;21.10;99.90
6948;DHT22;3513;47.664;9.162;2022-07-23T09:00:47;21.10;99.90
6948;DHT22;3513;47.664;9.162;2022-07-23T09:03:32;21.20;99.90
6948;DHT22;3513;47.664;9.162;2022-07-23T09:05:59;21.20;99.90
6948;DHT22;3513;47.664;9.162;2022-07-23T09:08:42;21.30;99.90
6948;DHT22;3513;47.664;9.162;2022-07-23T09:11:13;21.30;99.90
6948;DHT22;3513;47.664;9.162;2022-07-23T09:16:27;21.40;99.90
6948;DHT22;3513;47.664;9.162;2022-07-23T09:19:01;21.40;99.90
6948;DHT22;3513;47.664;9.162;2022-07-23T09:21:35;21.40;99.90
6948;DHT22;3513;47.664;9.162;2022-07-23T09:24:09;21.40;99.90
6948;DHT22;3513;47.664;9.162;2022-07-23T09:26:40;21.30;99.90
6948;DHT22;3513;47.664;9.162;2022-07-23T09:29:18;21.40;99.90
6948;DHT22;3513;47.664;9.162;2022-07-23T09:36:42;21.50;99.90
6948;DHT22;3513;47.664;9.162;2022-07-23T09:39:09;21.50;99.90
6948;DHT22;3513;47.664;9.162;2022-07-23T09:41:40;21.60;99.90
6948;DHT22;3513;47.664;9.162;2022-07-23T09:44:11;21.70;99.90
6948;DHT22;3513;47.664;9.162;2022-07-23T09:46:38;21.70;99.90
6948;DHT22;3513;47.664;9.162;2022-07-23T09:49:13;21.80;99.90
6948;DHT22;3513;47.664;9.162;2022-07-23T09:51:53;21.80;99.90
6948;DHT22;3513;47.664;9.162;2022-07-23T09:54:33;21.90;99.90
6948;DHT22;3513;47.664;9.162;2022-07-23T09:57:17;21.90;99.90
6948;DHT22;3513;47.664;9.162;2022-07-23T09:59:44;22.10;99.90
6948;DHT22;3513;47.664;9.162;2022-07-23T10:02:13;22.20;99.90
6948;DHT22;3513;47.664;9.162;2022-07-23T10:04:40;22.30;99.90
6948;DHT22;3513;47.664;9.162;2022-07-23T10:07:08;22.40;99.90
6948;DHT22;3513;47.664;9.162;2022-07-23T10:09:40;22.50;99.90
6948;DHT22;3513;47.664;9.162;2022-07-23T10:12:12;22.70;99.90
6948;DHT22;3513;47.664;9.162;2022-07-23T10:14:47;22.80;99.90
6948;DHT22;3513;47.664;9.162;2022-07-23T10:17:13;22.90;99.90
6948;DHT22;3513;47.664;9.162;2022-07-23T10:19:39;23.00;99.90
6948;DHT22;3513;47.664;9.162;2022-07-23T10:22:14;23.10;99.90
6948;DHT22;3513;47.664;9.162;2022-07-23T10:25:00;23.20;99.90
6948;DHT22;3513;47.664;9.162;2022-07-23T10:27:50;23.30;99.90
6948;DHT22;3513;47.664;9.162;2022-07-23T10:33:12;23.20;99.90
6948;DHT22;3513;47.664;9.162;2022-07-23T10:39:05;23.20;99.90
6948;DHT22;3513;47.664;9.162;2022-07-23T10:41:41;23.10;99.90
6948;DHT22;3513;47.664;9.162;2022-07-23T10:44:21;23.10;99.90
6948;DHT22;3513;47.664;9.162;2022-07-23T10:47:04;22.90;99.90
6948;DHT22;3513;47.664;9.162;2022-07-23T10:49:36;22.70;99.90
6948;DHT22;3513;47.664;9.162;2022-07-23T10:54:43;22.60;99.90
6948;DHT22;3513;47.664;9.162;2022-07-23T10:57:10;22.50;99.90
6948;DHT22;3513;47.664;9.162;2022-07-23T11:02:31;22.60;99.90
6948;DHT22;3513;47.664;9.162;2022-07-23T11:05:04;22.60;99.90
6948;DHT22;3513;47.664;9.162;2022-07-23T11:07:30;22.50;99.90
6948;DHT22;3513;47.664;9.162;2022-07-23T11:09:56;22.60;99.90
6948;DHT22;3513;47.664;9.162;2022-07-23T11:17:26;22.70;99.90
6948;DHT22;3513;47.664;9.162;2022-07-23T11:25:30;22.60;99.90
6948;DHT22;3513;47.664;9.162;2022-07-23T11:27:55;22.50;99.90
6948;DHT22;3513;47.664;9.162;2022-07-23T11:35:36;22.50;99.90
6948;DHT22;3513;47.664;9.162;2022-07-23T11:38:16;22.50;99.90
6948;DHT22;3513;47.664;9.162;2022-07-23T11:40:44;22.50;99.90
6948;DHT22;3513;47.664;9.162;2022-07-23T11:43:11;22.50;99.90
6948;DHT22;3513;47.664;9.162;2022-07-23T11:45:42;22.50;99.90
6948;DHT22;3513;47.664;9.162;2022-07-23T11:48:17;22.50;99.90
6948;DHT22;3513;47.664;9.162;2022-07-23T11:50:43;22.40;99.90
6948;DHT22;3513;47.664;9.162;2022-07-23T11:53:09;22.50;99.90
6948;DHT22;3513;47.664;9.162;2022-07-23T11:55:35;22.50;99.90
6948;DHT22;3513;47.664;9.162;2022-07-23T11:58:01;22.50;99.90
6948;DHT22;3513;47.664;9.162;2022-07-23T12:00:30;22.50;99.90
6948;DHT22;3513;47.664;9.162;2022-07-23T12:03:02;22.60;99.90
6948;DHT22;3513;47.664;9.162;2022-07-23T12:05:31;22.60;99.90
6948;DHT22;3513;47.664;9.162;2022-07-23T12:07:58;22.70;99.90
6948;DHT22;3513;47.664;9.162;2022-07-23T12:12:56;23.10;99.90
6948;DHT22;3513;47.664;9.162;2022-07-23T12:17:49;23.60;99.90
6948;DHT22;3513;47.664;9.162;2022-07-23T12:20:20;23.90;99.90
6948;DHT22;3513;47.664;9.162;2022-07-23T12:22:48;24.20;99.90
6948;DHT22;3513;47.664;9.162;2022-07-23T12:25:19;24.20;99.90
6948;DHT22;3513;47.664;9.162;2022-07-23T12:27:46;24.40;99.90
6948;DHT22;3513;47.664;9.162;2022-07-23T12:32:44;24.70;99.90
6948;DHT22;3513;47.664;9.162;2022-07-23T12:35:13;24.90;99.90
6948;DHT22;3513;47.664;9.162;2022-07-23T12:37:44;25.10;99.90
6948;DHT22;3513;47.664;9.162;2022-07-23T12:40:28;25.30;99.90
6948;DHT22;3513;47.664;9.162;2022-07-23T12:42:59;25.80;99.90
6948;DHT22;3513;47.664;9.162;2022-07-23T12:45:45;26.20;99.90
6948;DHT22;3513;47.664;9.162;2022-07-23T12:48:39;26.70;98.60
6948;DHT22;3513;47.664;9.162;2022-07-23T12:51:12;26.70;98.30
6948;DHT22;3513;47.664;9.162;2022-07-23T12:53:42;26.80;98.70
6948;DHT22;3513;47.664;9.162;2022-07-23T12:56:12;26.80;97.90
6948;DHT22;3513;47.664;9.162;2022-07-23T13:01:06;27.20;98.90
6948;DHT22;3513;47.664;9.162;2022-07-23T13:03:38;27.50;96.20
6948;DHT22;3513;47.664;9.162;2022-07-23T13:06:06;27.60;96.50
6948;DHT22;3513;47.664;9.162;2022-07-23T13:08:34;27.90;96.00
6948;DHT22;3513;47.664;9.162;2022-07-23T13:11:00;27.90;95.00
6948;DHT22;3513;47.664;9.162;2022-07-23T13:13:29;27.70;94.80
6948;DHT22;3513;47.664;9.162;2022-07-23T13:15:56;27.70;95.90
6948;DHT22;3513;47.664;9.162;2022-07-23T13:18:22;27.80;95.00
6948;DHT22;3513;47.664;9.162;2022-07-23T13:20:49;27.90;95.70
6948;DHT22;3513;47.664;9.162;2022-07-23T13:23:15;28.00;95.70
6948;DHT22;3513;47.664;9.162;2022-07-23T13:25:41;28.00;94.50
6948;DHT22;3513;47.664;9.162;2022-07-23T13:28:07;28.10;94.30
6948;DHT22;3513;47.664;9.162;2022-07-23T13:30:33;28.40;95.40
6948;DHT22;3513;47.664;9.162;2022-07-23T13:32:59;28.80;94.90
6948;DHT22;3513;47.664;9.162;2022-07-23T13:35:25;29.00;92.50
6948;DHT22;3513;47.664;9.162;2022-07-23T13:37:51;29.20;94.40
6948;DHT22;3513;47.664;9.162;2022-07-23T13:40:16;29.40;92.50
6948;DHT22;3513;47.664;9.162;2022-07-23T13:42:42;29.30;91.90
6948;DHT22;3513;47.664;9.162;2022-07-23T13:45:08;29.40;92.10
6948;DHT22;3513;47.664;9.162;2022-07-23T13:47:34;29.30;91.10
6948;DHT22;3513;47.664;9.162;2022-07-23T13:50:00;29.20;91.40
6948;DHT22;3513;47.664;9.162;2022-07-23T13:52:26;29.30;92.00
6948;DHT22;3513;47.664;9.162;2022-07-23T13:54:51;29.40;92.00
6948;DHT22;3513;47.664;9.162;2022-07-23T13:57:17;29.40;90.10
6948;DHT22;3513;47.664;9.162;2022-07-23T13:59:43;29.20;90.90
6948;DHT22;3513;47.664;9.162;2022-07-23T14:02:09;29.40;92.00
6948;DHT22;3513;47.664;9.162;2022-07-23T14:04:35;29.60;90.60
6948;DHT22;3513;47.664;9.162;2022-07-23T14:07:00;29.90;90.40
6948;DHT22;3513;47.664;9.162;2022-07-23T14:09:26;30.10;89.90
6948;DHT22;3513;47.664;9.162;2022-07-23T14:11:53;30.50;88.40
6948;DHT22;3513;47.664;9.162;2022-07-23T14:14:18;30.40;85.40
6948;DHT22;3513;47.664;9.162;2022-07-23T14:16:45;30.30;87.60
6948;DHT22;3513;47.664;9.162;2022-07-23T14:19:10;30.10;85.10
6948;DHT22;3513;47.664;9.162;2022-07-23T14:21:37;30.00;87.40
6948;DHT22;3513;47.664;9.162;2022-07-23T14:24:03;30.20;87.30
6948;DHT22;3513;47.664;9.162;2022-07-23T14:26:29;30.50;85.20
6948;DHT22;3513;47.664;9.162;2022-07-23T14:28:55;31.00;85.60
6948;DHT22;3513;47.664;9.162;2022-07-23T14:31:21;31.60;85.30
6948;DHT22;3513;47.664;9.162;2022-07-23T14:33:47;32.20;83.40
6948;DHT22;3513;47.664;9.162;2022-07-23T14:36:13;32.60;79.10
6948;DHT22;3513;47.664;9.162;2022-07-23T14:38:38;33.00;77.70
6948;DHT22;3513;47.664;9.162;2022-07-23T14:41:04;33.20;76.70
6948;DHT22;3513;47.664;9.162;2022-07-23T14:43:32;33.40;74.70
6948;DHT22;3513;47.664;9.162;2022-07-23T14:45:58;33.60;76.00
6948;DHT22;3513;47.664;9.162;2022-07-23T14:48:24;34.00;73.90
6948;DHT22;3513;47.664;9.162;2022-07-23T14:50:49;34.50;72.20
6948;DHT22;3513;47.664;9.162;2022-07-23T14:53:15;34.80;70.20
6948;DHT22;3513;47.664;9.162;2022-07-23T14:55:42;35.00;68.70
6948;DHT22;3513;47.664;9.162;2022-07-23T14:58:07;35.20;68.30
6948;DHT22;3513;47.664;9.162;2022-07-23T15:00:33;35.20;67.40
6948;DHT22;3513;47.664;9.162;2022-07-23T15:02:59;35.40;66.80
6948;DHT22;3513;47.664;9.162;2022-07-23T15:05:24;35.50;66.80
6948;DHT22;3513;47.664;9.162;2022-07-23T15:07:50;35.80;65.20
6948;DHT22;3513;47.664;9.162;2022-07-23T15:10:16;36.10;63.70
6948;DHT22;3513;47.664;9.162;2022-07-23T15:12:42;36.40;62.70
6948;DHT22;3513;47.664;9.162;2022-07-23T15:15:08;36.50;59.90
6948;DHT22;3513;47.664;9.162;2022-07-23T15:17:34;36.60;59.60
6948;DHT22;3513;47.664;9.162;2022-07-23T15:19:59;36.80;59.60
6948;DHT22;3513;47.664;9.162;2022-07-23T15:22:25;37.00;59.10
6948;DHT22;3513;47.664;9.162;2022-07-23T15:24:51;37.10;58.60
6948;DHT22;3513;47.664;9.162;2022-07-23T15:27:17;37.20;57.00
6948;DHT22;3513;47.664;9.162;2022-07-23T15:29:44;37.40;56.80
6948;DHT22;3513;47.664;9.162;2022-07-23T15:32:10;37.70;56.50
6948;DHT22;3513;47.664;9.162;2022-07-23T15:34:37;37.90;54.70
6948;DHT22;3513;47.664;9.162;2022-07-23T15:37:03;37.90;54.50
6948;DHT22;3513;47.664;9.162;2022-07-23T15:39:31;37.60;54.10
6948;DHT22;3513;47.664;9.162;2022-07-23T15:41:59;37.20;54.90
6948;DHT22;3513;47.664;9.162;2022-07-23T15:44:25;36.90;55.50
6948;DHT22;3513;47.664;9.162;2022-07-23T15:46:50;36.50;56.10
6948;DHT22;3513;47.664;9.162;2022-07-23T15:49:16;36.20;56.70
6948;DHT22;3513;47.664;9.162;2022-07-23T15:51:42;36.30;56.80
6948;DHT22;3513;47.664;9.162;2022-07-23T15:54:08;36.70;55.70
6948;DHT22;3513;47.664;9.162;2022-07-23T15:56:33;36.80;55.70
6948;DHT22;3513;47.664;9.162;2022-07-23T15:58:59;37.20;54.70
6948;DHT22;3513;47.664;9.162;2022-07-23T16:01:25;37.70;53.20
6948;DHT22;3513;47.664;9.162;2022-07-23T16:03:50;38.30;51.90
6948;DHT22;3513;47.664;9.162;2022-07-23T16:06:16;38.80;50.70
6948;DHT22;3513;47.664;9.162;2022-07-23T16:08:42;39.30;49.90
6948;DHT22;3513;47.664;9.162;2022-07-23T16:11:09;39.30;49.40
6948;DHT22;3513;47.664;9.162;2022-07-23T16:13:34;39.00;49.10
6948;DHT22;3513;47.664;9.162;2022-07-23T16:16:01;38.60;50.00
6948;DHT22;3513;47.664;9.162;2022-07-23T16:18:26;37.90;51.40
6948;DHT22;3513;47.664;9.162;2022-07-23T16:20:52;37.40;52.80
6948;DHT22;3513;47.664;9.162;2022-07-23T16:23:19;37.10;53.90
6948;DHT22;3513;47.664;9.162;2022-07-23T16:25:45;37.00;53.60
6948;DHT22;3513;47.664;9.162;2022-07-23T16:28:11;36.90;53.80
6948;DHT22;3513;47.664;9.162;2022-07-23T16:30:39;37.20;53.30
6948;DHT22;3513;47.664;9.162;2022-07-23T16:33:05;37.80;52.70
6948;DHT22;3513;47.664;9.162;2022-07-23T16:35:30;38.60;51.50
6948;DHT22;3513;47.664;9.162;2022-07-23T16:37:56;39.30;50.30
6948;DHT22;3513;47.664;9.162;2022-07-23T16:40:25;39.60;49.20
6948;DHT22;3513;47.664;9.162;2022-07-23T16:42:51;39.80;48.80
6948;DHT22;3513;47.664;9.162;2022-07-23T16:45:17;40.00;48.70